createdAt,value
2022-09-15T00:02:49.308Z,87.45
2022-09-15T00:07:57.805Z,86.78
2022-09-15T00:13:06.245Z,87.24
2022-09-15T00:18:14.011Z,85.78
2022-09-15T00:23:22.426Z,85.96
2022-09-15T00:28:30.552Z,86.03
2022-09-15T00:33:38.485Z,85.15
2022-09-15T00:38:46.523Z,85.4
2022-09-15T00:43:53.875Z,85.54
2022-09-15T00:49:00.348Z,85.37001
2022-09-15T00:54:06.941Z,85.04001
2022-09-15T00:59:14.773Z,85.19
2022-09-15T01:04:22.032Z,84.89
2022-09-15T01:09:30.543Z,85.42
2022-09-15T01:14:38.229Z,85.92
2022-09-15T01:19:45.031Z,86.31
2022-09-15T01:24:52.699Z,86.43001
2022-09-15T01:30:01.299Z,86.21
2022-09-15T01:35:10.629Z,86.02
2022-09-15T01:40:18.627Z,85.88
2022-09-15T01:45:26.838Z,85.96
2022-09-15T01:50:34.848Z,85.49
2022-09-15T01:55:42.578Z,85.48
2022-09-15T02:00:50.338Z,86.1
2022-09-15T02:05:58.017Z,86.2
2022-09-15T02:11:05.434Z,85.80001
2022-09-15T02:17:43.944Z,86.18
2022-09-15T02:22:50.514Z,86.72
2022-09-15T02:27:57.293Z,86.99
2022-09-15T02:33:04.287Z,86.83001
2022-09-15T02:38:11.844Z,86.92
2022-09-15T02:43:19.440Z,86.66
2022-09-15T02:48:26.489Z,86.24
2022-09-15T02:53:34.527Z,85.16001
2022-09-15T02:58:42.344Z,84.48001
2022-09-15T03:03:49.398Z,84.58
2022-09-15T03:08:57.989Z,83.63
2022-09-15T03:14:05.159Z,84.38
2022-09-15T03:19:12.946Z,84.66001
2022-09-15T03:24:20.140Z,84.1
2022-09-15T03:29:27.990Z,84.11
2022-09-15T03:34:35.941Z,84.54
2022-09-15T03:39:43.831Z,84.06
2022-09-15T03:44:52.415Z,83.6
2022-09-15T03:49:59.938Z,83.8
2022-09-15T03:55:07.337Z,83.11
2022-09-15T04:00:13.762Z,83.16001
2022-09-15T04:05:22.090Z,83.24
2022-09-15T04:10:30.486Z,83.28
2022-09-15T04:15:43.061Z,82.94001
2022-09-15T04:20:50.911Z,83.44001
2022-09-15T04:25:58.209Z,83.53
2022-09-15T04:31:06.525Z,82.56
2022-09-15T04:36:13.700Z,82.5
2022-09-15T04:41:21.148Z,82.22
2022-09-15T04:46:28.695Z,82.07
2022-09-15T04:51:36.547Z,82.17
2022-09-15T04:56:44.911Z,82.57
2022-09-15T05:01:52.501Z,82.33001
2022-09-15T05:07:00.776Z,83.06
2022-09-15T05:12:09.167Z,82.44
2022-09-15T05:17:16.379Z,82.7
2022-09-15T05:22:24.252Z,82.5
2022-09-15T05:27:32.597Z,81.42
2022-09-15T05:32:40.280Z,81.76001
2022-09-15T05:37:48.070Z,80.24
2022-09-15T05:42:55.923Z,79.98001
2022-09-15T05:48:03.442Z,79.57
2022-09-15T05:53:10.006Z,79.18
2022-09-15T05:58:18.315Z,78.96
2022-09-15T06:03:25.699Z,77.67
2022-09-15T06:08:33.575Z,81.28
2022-09-15T06:13:42.557Z,78.41001
2022-09-15T06:18:50.231Z,79.76
2022-09-15T06:23:58.311Z,79.57
2022-09-15T06:29:07.354Z,79.79
2022-09-15T06:34:14.617Z,80.38
2022-09-15T06:39:23.503Z,80.25001
2022-09-15T06:44:30.994Z,79.76
2022-09-15T06:49:38.165Z,79.62
2022-09-15T06:54:46.200Z,78.13
2022-09-15T06:59:54.257Z,78.06
2022-09-15T07:05:01.655Z,77.78
2022-09-15T07:10:09.470Z,79.25
2022-09-15T07:15:16.881Z,80.03
2022-09-15T07:20:24.174Z,76.96
2022-09-15T07:25:32.258Z,76.38
2022-09-15T07:30:40.218Z,76.76
2022-09-15T07:35:47.801Z,75.3
2022-09-15T07:40:55.858Z,75.71
2022-09-15T07:46:04.161Z,76.30001
2022-09-15T07:51:11.912Z,75.33
2022-09-15T07:56:19.874Z,74.45
2022-09-15T08:01:29.466Z,73.12
2022-09-15T08:06:36.412Z,72.24
2022-09-15T08:11:43.843Z,73.17
2022-09-15T08:16:51.053Z,72.16001
2022-09-15T08:21:57.912Z,74.34
2022-09-15T08:27:05.274Z,72.06
2022-09-15T08:32:13.691Z,71.36
2022-09-15T08:37:21.280Z,71.7
2022-09-15T08:42:29.040Z,71.31
2022-09-15T08:47:37.222Z,70.62
2022-09-15T08:52:45.290Z,70.46
2022-09-15T08:57:54.244Z,71.09
2022-09-15T09:03:00.740Z,70.71
2022-09-15T09:08:07.939Z,70.2
2022-09-15T09:13:16.139Z,71.26
2022-09-15T09:18:23.669Z,71.47
2022-09-15T09:23:31.419Z,70.74
2022-09-15T09:28:38.914Z,71.44001
2022-09-15T09:33:46.493Z,72.31
2022-09-15T09:38:53.058Z,72.32
2022-09-15T09:44:00.901Z,73.86
2022-09-15T09:49:08.607Z,76.69
2022-09-15T09:54:15.290Z,79.53
2022-09-15T09:59:22.344Z,79.93
2022-09-15T10:04:31.566Z,82.98
2022-09-15T10:09:40.328Z,83.0
2022-09-15T10:14:47.344Z,82.75001
2022-09-15T10:19:55.232Z,82.07
2022-09-15T10:25:02.611Z,83.02
2022-09-15T10:30:09.733Z,82.83
2022-09-15T10:35:17.385Z,83.06
2022-09-15T10:40:26.330Z,84.7
2022-09-15T10:45:33.452Z,85.56
2022-09-15T10:50:41.436Z,88.1
2022-09-15T10:55:49.979Z,84.94
2022-09-15T11:00:58.796Z,86.4
2022-09-15T11:06:05.734Z,82.46
2022-09-15T11:11:12.622Z,80.29
2022-09-15T11:16:21.253Z,79.8
2022-09-15T11:21:27.937Z,78.51
2022-09-15T11:26:36.763Z,78.12
2022-09-15T11:31:44.560Z,77.31
2022-09-15T11:36:51.526Z,77.8
2022-09-15T11:41:59.773Z,78.03
2022-09-15T11:47:07.185Z,78.2
2022-09-15T11:52:15.241Z,77.46
2022-09-15T11:57:21.611Z,76.86
2022-09-15T12:02:30.046Z,77.37
2022-09-15T12:07:37.494Z,77.28
2022-09-15T12:12:45.658Z,77.2
2022-09-15T12:17:53.968Z,79.47
2022-09-15T12:23:00.738Z,77.88
2022-09-15T12:28:09.209Z,77.77
2022-09-15T12:33:17.010Z,77.58
2022-09-15T12:38:25.417Z,78.66001
2022-09-15T12:43:33.378Z,76.57
2022-09-15T12:48:41.000Z,78.3
2022-09-15T12:53:47.778Z,75.77
2022-09-15T12:58:55.200Z,76.25
2022-09-15T13:04:02.820Z,76.14
2022-09-15T13:09:10.659Z,74.65
2022-09-15T13:14:18.416Z,76.98
2022-09-15T13:19:26.332Z,74.78
2022-09-15T13:24:34.547Z,74.53
2022-09-15T13:29:41.426Z,74.26
2022-09-15T13:34:48.643Z,73.54
2022-09-15T13:39:56.187Z,73.86
2022-09-15T13:45:04.121Z,73.02
2022-09-15T13:50:11.483Z,72.63
2022-09-15T13:55:19.010Z,70.49
2022-09-15T14:00:26.492Z,69.83
2022-09-15T14:05:35.492Z,72.69001
2022-09-15T14:10:42.300Z,73.93
2022-09-15T14:15:50.213Z,76.83
2022-09-15T14:20:57.860Z,74.48
2022-09-15T14:26:05.456Z,75.96
2022-09-15T14:31:12.474Z,80.02
2022-09-15T14:36:18.790Z,81.12
2022-09-15T14:41:26.644Z,81.26
2022-09-15T14:46:33.840Z,82.78
2022-09-15T14:51:41.025Z,82.78
2022-09-15T14:56:50.282Z,83.66
2022-09-15T15:01:58.026Z,83.26
2022-09-15T15:07:05.864Z,81.85
2022-09-15T15:12:14.937Z,79.38
2022-09-15T15:17:22.488Z,80.68
2022-09-15T15:22:32.445Z,78.4
2022-09-15T15:27:41.061Z,76.31
2022-09-15T15:32:48.778Z,79.56
2022-09-15T15:37:56.109Z,79.64
2022-09-15T15:43:03.987Z,77.12
2022-09-15T15:48:11.883Z,71.89
2022-09-15T15:53:20.189Z,77.63
2022-09-15T15:58:27.524Z,78.86
2022-09-15T16:03:34.766Z,78.76
2022-09-15T16:08:42.775Z,81.17
2022-09-15T16:13:50.343Z,81.08001
2022-09-15T16:18:58.690Z,82.06
2022-09-15T16:24:06.570Z,82.23001
2022-09-15T16:29:14.301Z,83.30001
2022-09-15T16:34:21.889Z,84.07001
2022-09-15T16:39:30.713Z,84.39
2022-09-15T16:44:38.024Z,84.65
2022-09-15T16:49:45.789Z,85.13
2022-09-15T16:54:53.096Z,84.74
2022-09-15T17:00:01.409Z,85.30001
2022-09-15T17:05:08.747Z,85.77
2022-09-15T17:10:16.729Z,86.18
2022-09-15T17:15:23.119Z,86.50001
2022-09-15T17:20:31.025Z,86.83001
2022-09-15T17:25:38.226Z,87.1
2022-09-15T17:30:45.439Z,87.45
2022-09-15T17:35:53.263Z,87.78
2022-09-15T17:41:00.307Z,87.93
2022-09-15T17:46:07.891Z,88.30001
2022-09-15T17:51:14.900Z,88.54
2022-09-15T17:56:23.175Z,88.73
2022-09-15T18:01:29.890Z,88.83
2022-09-15T18:06:37.700Z,89.04
2022-09-15T18:11:50.660Z,89.26001
2022-09-15T18:16:57.223Z,89.03
2022-09-15T18:22:05.087Z,88.94
2022-09-15T18:27:12.205Z,89.00001
2022-09-15T18:32:19.390Z,89.32
2022-09-15T18:37:27.745Z,89.51
2022-09-15T18:42:35.145Z,89.75
2022-09-15T18:47:43.339Z,89.99
2022-09-15T18:52:57.040Z,90.12
2022-09-15T18:58:03.827Z,90.37001
2022-09-15T19:03:10.940Z,90.49
2022-09-15T19:08:18.865Z,90.36
2022-09-15T19:13:26.657Z,90.11001
2022-09-15T19:18:34.031Z,89.56
2022-09-15T19:23:41.698Z,89.01
2022-09-15T19:28:49.903Z,88.41001
2022-09-15T19:33:56.053Z,87.85
2022-09-15T19:39:03.938Z,87.76
2022-09-15T19:44:11.710Z,87.94001
2022-09-15T19:49:20.246Z,87.11
2022-09-15T19:54:42.758Z,87.94001
2022-09-15T19:59:50.331Z,88.82
2022-09-15T20:04:58.970Z,90.07
2022-09-15T20:10:07.607Z,90.56
2022-09-15T20:15:15.028Z,90.69
2022-09-15T20:20:22.000Z,90.85
2022-09-15T20:25:30.309Z,90.97
2022-09-15T20:30:38.246Z,91.05
2022-09-15T20:35:44.881Z,90.88
2022-09-15T20:40:52.938Z,90.87001
2022-09-15T20:45:59.923Z,91.14
2022-09-15T20:51:07.456Z,91.15001
2022-09-15T20:56:15.545Z,91.16
2022-09-15T21:01:22.793Z,91.07
2022-09-15T21:06:31.013Z,91.08001
2022-09-15T21:11:42.729Z,91.12
2022-09-15T21:16:50.758Z,91.25
2022-09-15T21:21:57.375Z,90.96
2022-09-15T21:27:04.598Z,91.02
2022-09-15T21:32:12.422Z,91.13
2022-09-15T21:37:19.938Z,91.45
2022-09-15T21:42:42.492Z,91.32
2022-09-15T21:43:09.989Z,91.32
2022-09-15T21:48:11.992Z,91.33
2022-09-15T21:48:31.141Z,91.33
2022-09-15T21:53:30.746Z,91.63
2022-09-15T21:58:38.979Z,91.54
2022-09-15T22:03:46.610Z,91.87
2022-09-15T22:08:53.890Z,91.98001
2022-09-15T22:14:01.211Z,92.11
2022-09-15T22:19:10.241Z,92.12001
2022-09-15T22:24:17.502Z,91.95
2022-09-15T22:29:24.713Z,92.0
2022-09-15T22:34:33.751Z,92.12001
2022-09-15T22:39:42.291Z,92.2
2022-09-15T22:44:51.330Z,92.19001
2022-09-15T22:49:57.995Z,92.06
2022-09-15T22:55:06.085Z,92.02
2022-09-15T23:00:13.692Z,91.95
2022-09-15T23:05:21.949Z,92.21
2022-09-15T23:10:28.763Z,92.28
2022-09-15T23:15:36.588Z,92.32
2022-09-15T23:20:44.755Z,92.38
2022-09-15T23:25:54.049Z,92.48
2022-09-15T23:31:00.692Z,92.56
2022-09-15T23:36:07.932Z,92.54001
2022-09-15T23:41:15.162Z,92.62
2022-09-15T23:46:23.719Z,92.68001
2022-09-15T23:51:31.745Z,92.72
2022-09-15T23:56:40.017Z,92.76
